sensor_id;sensor_type;location;lat;lon;timestamp;P1;durP1;ratioP1;P2;durP2;ratioP2
62556;SDS011;48612;50.742;-1.226;2022-09-12T20:03:59;9.00;;;4.88;;
62556;SDS011;48612;50.742;-1.226;2022-09-12T20:07:05;8.73;;;4.50;;
62556;SDS011;48612;50.742;-1.226;2022-09-12T20:10:16;9.85;;;4.82;;
62556;SDS011;48612;50.742;-1.226;2022-09-12T20:13:55;10.43;;;5.35;;
62556;SDS011;48612;50.742;-1.226;2022-09-12T20:20:25;8.50;;;5.28;;
62556;SDS011;48612;50.742;-1.226;2022-09-12T20:22:57;12.65;;;5.05;;
62556;SDS011;48612;50.742;-1.226;2022-09-12T20:25:22;9.45;;;4.72;;
62556;SDS011;48612;50.742;-1.226;2022-09-12T20:27:47;12.90;;;5.80;;
62556;SDS011;48612;50.742;-1.226;2022-09-12T20:30:16;10.10;;;5.72;;
62556;SDS011;48612;50.742;-1.226;2022-09-12T20:36:36;9.10;;;5.35;;
62556;SDS011;48612;50.742;-1.226;2022-09-12T20:42:20;12.45;;;5.82;;
62556;SDS011;48612;50.742;-1.226;2022-09-12T20:44:52;12.95;;;6.63;;
62556;SDS011;48612;50.742;-1.226;2022-09-12T20:48:11;12.20;;;5.70;;
62556;SDS011;48612;50.742;-1.226;2022-09-12T20:51:35;10.05;;;5.65;;
62556;SDS011;48612;50.742;-1.226;2022-09-12T20:54:06;11.30;;;5.35;;
62556;SDS011;48612;50.742;-1.226;2022-09-12T20:56:36;9.38;;;5.22;;
62556;SDS011;48612;50.742;-1.226;2022-09-12T20:59:55;9.88;;;5.50;;
62556;SDS011;48612;50.742;-1.226;2022-09-12T21:06:42;8.32;;;5.07;;
62556;SDS011;48612;50.742;-1.226;2022-09-12T21:09:32;11.18;;;5.68;;
62556;SDS011;48612;50.742;-1.226;2022-09-12T21:12:18;8.73;;;5.70;;
62556;SDS011;48612;50.742;-1.226;2022-09-12T21:15:27;11.00;;;5.00;;
62556;SDS011;48612;50.742;-1.226;2022-09-12T21:19:11;9.90;;;5.30;;
62556;SDS011;48612;50.742;-1.226;2022-09-12T21:22:59;6.50;;;4.03;;
62556;SDS011;48612;50.742;-1.226;2022-09-12T21:26:48;8.80;;;3.70;;
62556;SDS011;48612;50.742;-1.226;2022-09-12T21:30:09;12.10;;;4.35;;
62556;SDS011;48612;50.742;-1.226;2022-09-12T21:33:29;9.48;;;3.40;;
62556;SDS011;48612;50.742;-1.226;2022-09-12T21:35:59;6.88;;;3.15;;
62556;SDS011;48612;50.742;-1.226;2022-09-12T21:38:26;7.45;;;2.90;;
62556;SDS011;48612;50.742;-1.226;2022-09-12T21:44:51;3.55;;;2.80;;
62556;SDS011;48612;50.742;-1.226;2022-09-12T21:48:09;4.35;;;2.90;;
62556;SDS011;48612;50.742;-1.226;2022-09-12T21:51:26;4.50;;;2.70;;
62556;SDS011;48612;50.742;-1.226;2022-09-12T21:54:27;5.70;;;3.35;;
62556;SDS011;48612;50.742;-1.226;2022-09-12T21:57:38;8.75;;;3.03;;
62556;SDS011;48612;50.742;-1.226;2022-09-12T22:00:12;6.47;;;3.67;;
62556;SDS011;48612;50.742;-1.226;2022-09-12T22:02:51;6.70;;;3.17;;
62556;SDS011;48612;50.742;-1.226;2022-09-12T22:06:02;5.00;;;2.90;;
62556;SDS011;48612;50.742;-1.226;2022-09-12T22:08:54;5.63;;;2.40;;
62556;SDS011;48612;50.742;-1.226;2022-09-12T22:12:02;5.68;;;2.60;;
62556;SDS011;48612;50.742;-1.226;2022-09-12T22:14:41;6.25;;;2.50;;
62556;SDS011;48612;50.742;-1.226;2022-09-12T22:18:10;5.13;;;2.83;;
62556;SDS011;48612;50.742;-1.226;2022-09-12T22:21:34;9.43;;;2.70;;
62556;SDS011;48612;50.742;-1.226;2022-09-12T22:25:03;8.77;;;2.85;;
62556;SDS011;48612;50.742;-1.226;2022-09-12T22:28:15;4.22;;;2.28;;
62556;SDS011;48612;50.742;-1.226;2022-09-12T22:31:05;7.75;;;2.75;;
62556;SDS011;48612;50.742;-1.226;2022-09-12T22:34:02;6.75;;;3.42;;
62556;SDS011;48612;50.742;-1.226;2022-09-12T22:37:13;5.10;;;2.60;;
62556;SDS011;48612;50.742;-1.226;2022-09-12T22:39:50;10.05;;;3.05;;
62556;SDS011;48612;50.742;-1.226;2022-09-12T22:42:56;6.35;;;2.90;;
62556;SDS011;48612;50.742;-1.226;2022-09-12T22:46:14;10.68;;;3.25;;
62556;SDS011;48612;50.742;-1.226;2022-09-12T22:49:13;7.40;;;2.95;;
62556;SDS011;48612;50.742;-1.226;2022-09-12T22:52:22;4.43;;;2.97;;
62556;SDS011;48612;50.742;-1.226;2022-09-12T22:55:11;6.35;;;3.03;;
62556;SDS011;48612;50.742;-1.226;2022-09-12T22:57:41;6.55;;;2.95;;
62556;SDS011;48612;50.742;-1.226;2022-09-12T23:00:31;6.93;;;2.90;;
62556;SDS011;48612;50.742;-1.226;2022-09-12T23:03:42;5.93;;;3.42;;
62556;SDS011;48612;50.742;-1.226;2022-09-12T23:06:11;10.82;;;3.05;;
62556;SDS011;48612;50.742;-1.226;2022-09-12T23:08:41;5.10;;;3.03;;
62556;SDS011;48612;50.742;-1.226;2022-09-12T23:11:17;8.75;;;2.95;;
62556;SDS011;48612;50.742;-1.226;2022-09-12T23:14:31;5.70;;;3.65;;
62556;SDS011;48612;50.742;-1.226;2022-09-12T23:17:22;6.03;;;3.00;;
62556;SDS011;48612;50.742;-1.226;2022-09-12T23:19:56;3.85;;;2.70;;
62556;SDS011;48612;50.742;-1.226;2022-09-12T23:23:27;6.10;;;3.00;;
62556;SDS011;48612;50.742;-1.226;2022-09-12T23:26:11;6.28;;;2.80;;
62556;SDS011;48612;50.742;-1.226;2022-09-12T23:29:00;5.63;;;2.60;;
62556;SDS011;48612;50.742;-1.226;2022-09-12T23:31:29;3.67;;;2.65;;
62556;SDS011;48612;50.742;-1.226;2022-09-12T23:34:04;3.88;;;2.60;;
62556;SDS011;48612;50.742;-1.226;2022-09-12T23:36:33;4.57;;;2.90;;
62556;SDS011;48612;50.742;-1.226;2022-09-12T23:39:07;5.68;;;2.85;;
62556;SDS011;48612;50.742;-1.226;2022-09-12T23:41:52;3.55;;;2.10;;
62556;SDS011;48612;50.742;-1.226;2022-09-12T23:44:23;4.03;;;2.78;;
62556;SDS011;48612;50.742;-1.226;2022-09-12T23:46:56;5.70;;;2.72;;
62556;SDS011;48612;50.742;-1.226;2022-09-12T23:49:24;4.72;;;2.55;;
62556;SDS011;48612;50.742;-1.226;2022-09-12T23:52:29;4.07;;;2.53;;
62556;SDS011;48612;50.742;-1.226;2022-09-12T23:54:59;4.20;;;2.58;;
62556;SDS011;48612;50.742;-1.226;2022-09-12T23:58:13;5.25;;;2.58;;
